sensor_id;sensor_type;location;lat;lon;timestamp;P1;durP1;ratioP1;P2;durP2;ratioP2
14396;SDS011;50653;0.000;0.000;2022-07-22T00:01:51;20.37;;;18.73;;
14396;SDS011;50653;0.000;0.000;2022-07-22T00:04:16;19.17;;;17.70;;
14396;SDS011;50653;0.000;0.000;2022-07-22T00:06:42;20.73;;;18.60;;
14396;SDS011;50653;0.000;0.000;2022-07-22T00:09:08;19.73;;;18.20;;
14396;SDS011;50653;0.000;0.000;2022-07-22T00:11:34;18.87;;;17.40;;
14396;SDS011;50653;0.000;0.000;2022-07-22T00:14:00;20.20;;;18.70;;
14396;SDS011;50653;0.000;0.000;2022-07-22T00:16:26;19.77;;;18.03;;
14396;SDS011;50653;0.000;0.000;2022-07-22T00:18:52;20.50;;;18.87;;
14396;SDS011;50653;0.000;0.000;2022-07-22T00:21:17;19.67;;;17.80;;
14396;SDS011;50653;0.000;0.000;2022-07-22T00:23:43;19.33;;;17.80;;
14396;SDS011;50653;0.000;0.000;2022-07-22T00:26:09;19.50;;;18.00;;
14396;SDS011;50653;0.000;0.000;2022-07-22T00:28:35;19.13;;;17.53;;
14396;SDS011;50653;0.000;0.000;2022-07-22T00:31:01;19.60;;;18.13;;
14396;SDS011;50653;0.000;0.000;2022-07-22T00:33:26;17.60;;;16.27;;
14396;SDS011;50653;0.000;0.000;2022-07-22T00:35:52;17.77;;;16.30;;
14396;SDS011;50653;0.000;0.000;2022-07-22T00:38:18;18.20;;;16.83;;
14396;SDS011;50653;0.000;0.000;2022-07-22T00:40:43;17.17;;;15.67;;
14396;SDS011;50653;0.000;0.000;2022-07-22T00:43:09;17.77;;;16.27;;
14396;SDS011;50653;0.000;0.000;2022-07-22T00:45:35;18.33;;;16.77;;
14396;SDS011;50653;0.000;0.000;2022-07-22T00:48:01;16.43;;;15.00;;
14396;SDS011;50653;0.000;0.000;2022-07-22T00:50:27;17.10;;;15.90;;
14396;SDS011;50653;0.000;0.000;2022-07-22T00:52:53;18.57;;;16.83;;
14396;SDS011;50653;0.000;0.000;2022-07-22T00:55:19;17.87;;;16.17;;
14396;SDS011;50653;0.000;0.000;2022-07-22T00:57:45;18.30;;;16.80;;
14396;SDS011;50653;0.000;0.000;2022-07-22T01:00:12;18.97;;;17.10;;
14396;SDS011;50653;0.000;0.000;2022-07-22T01:02:41;16.67;;;15.40;;
14396;SDS011;50653;0.000;0.000;2022-07-22T01:05:07;18.83;;;17.20;;
14396;SDS011;50653;0.000;0.000;2022-07-22T01:07:33;17.60;;;16.23;;
14396;SDS011;50653;0.000;0.000;2022-07-22T01:10:01;18.93;;;17.33;;
14396;SDS011;50653;0.000;0.000;2022-07-22T01:12:27;20.47;;;18.47;;
14396;SDS011;50653;0.000;0.000;2022-07-22T01:14:53;19.80;;;18.13;;
14396;SDS011;50653;0.000;0.000;2022-07-22T01:17:18;19.20;;;17.53;;
14396;SDS011;50653;0.000;0.000;2022-07-22T01:19:44;19.13;;;17.50;;
14396;SDS011;50653;0.000;0.000;2022-07-22T01:22:11;18.30;;;17.00;;
14396;SDS011;50653;0.000;0.000;2022-07-22T01:24:37;17.70;;;16.17;;
14396;SDS011;50653;0.000;0.000;2022-07-22T01:27:02;17.23;;;16.03;;
14396;SDS011;50653;0.000;0.000;2022-07-22T01:29:28;18.87;;;17.37;;
14396;SDS011;50653;0.000;0.000;2022-07-22T01:31:54;20.10;;;18.40;;
14396;SDS011;50653;0.000;0.000;2022-07-22T01:34:21;19.40;;;17.73;;
14396;SDS011;50653;0.000;0.000;2022-07-22T01:36:47;17.23;;;15.70;;
14396;SDS011;50653;0.000;0.000;2022-07-22T01:39:13;19.20;;;17.60;;
14396;SDS011;50653;0.000;0.000;2022-07-22T01:41:39;19.67;;;18.00;;
14396;SDS011;50653;0.000;0.000;2022-07-22T01:44:08;19.57;;;18.07;;
14396;SDS011;50653;0.000;0.000;2022-07-22T01:46:34;16.80;;;15.50;;
14396;SDS011;50653;0.000;0.000;2022-07-22T01:49:01;16.70;;;15.33;;
14396;SDS011;50653;0.000;0.000;2022-07-22T01:51:31;18.20;;;16.80;;
14396;SDS011;50653;0.000;0.000;2022-07-22T01:53:57;17.47;;;15.90;;
14396;SDS011;50653;0.000;0.000;2022-07-22T01:56:23;18.30;;;16.60;;
14396;SDS011;50653;0.000;0.000;2022-07-22T01:58:49;17.23;;;15.97;;
14396;SDS011;50653;0.000;0.000;2022-07-22T02:01:20;17.87;;;16.37;;
14396;SDS011;50653;0.000;0.000;2022-07-22T02:03:46;17.50;;;16.20;;
14396;SDS011;50653;0.000;0.000;2022-07-22T02:06:11;17.23;;;15.83;;
14396;SDS011;50653;0.000;0.000;2022-07-22T02:08:37;19.13;;;17.67;;
14396;SDS011;50653;0.000;0.000;2022-07-22T02:11:09;17.57;;;15.97;;
14396;SDS011;50653;0.000;0.000;2022-07-22T02:13:45;18.33;;;16.90;;
14396;SDS011;50653;0.000;0.000;2022-07-22T02:16:11;20.07;;;18.03;;
14396;SDS011;50653;0.000;0.000;2022-07-22T02:18:38;17.93;;;16.50;;
14396;SDS011;50653;0.000;0.000;2022-07-22T02:21:03;18.37;;;16.90;;
14396;SDS011;50653;0.000;0.000;2022-07-22T02:23:29;17.67;;;16.17;;
14396;SDS011;50653;0.000;0.000;2022-07-22T02:25:55;15.40;;;14.30;;
14396;SDS011;50653;0.000;0.000;2022-07-22T02:28:20;17.27;;;15.87;;
14396;SDS011;50653;0.000;0.000;2022-07-22T02:30:47;19.77;;;18.07;;
14396;SDS011;50653;0.000;0.000;2022-07-22T02:33:12;19.30;;;17.60;;
14396;SDS011;50653;0.000;0.000;2022-07-22T02:35:39;18.40;;;16.80;;
14396;SDS011;50653;0.000;0.000;2022-07-22T02:38:05;16.40;;;15.10;;
14396;SDS011;50653;0.000;0.000;2022-07-22T02:40:32;19.20;;;17.33;;
14396;SDS011;50653;0.000;0.000;2022-07-22T02:42:58;17.97;;;16.60;;
14396;SDS011;50653;0.000;0.000;2022-07-22T02:45:24;18.57;;;16.83;;
14396;SDS011;50653;0.000;0.000;2022-07-22T02:47:53;17.90;;;16.50;;
14396;SDS011;50653;0.000;0.000;2022-07-22T02:50:22;17.33;;;15.73;;
14396;SDS011;50653;0.000;0.000;2022-07-22T02:52:48;18.10;;;16.57;;
14396;SDS011;50653;0.000;0.000;2022-07-22T02:55:15;16.13;;;15.03;;
14396;SDS011;50653;0.000;0.000;2022-07-22T02:57:41;17.53;;;16.13;;
14396;SDS011;50653;0.000;0.000;2022-07-22T03:00:08;16.60;;;15.27;;
14396;SDS011;50653;0.000;0.000;2022-07-22T03:02:36;17.60;;;16.13;;
14396;SDS011;50653;0.000;0.000;2022-07-22T03:05:03;23.50;;;21.50;;
14396;SDS011;50653;0.000;0.000;2022-07-22T03:07:31;18.70;;;17.07;;
14396;SDS011;50653;0.000;0.000;2022-07-22T03:09:58;15.87;;;14.53;;
14396;SDS011;50653;0.000;0.000;2022-07-22T03:12:24;16.60;;;15.30;;
14396;SDS011;50653;0.000;0.000;2022-07-22T03:14:49;17.57;;;16.17;;
14396;SDS011;50653;0.000;0.000;2022-07-22T03:17:15;15.20;;;14.23;;
14396;SDS011;50653;0.000;0.000;2022-07-22T03:19:41;16.67;;;15.33;;
14396;SDS011;50653;0.000;0.000;2022-07-22T03:22:06;17.10;;;15.90;;
14396;SDS011;50653;0.000;0.000;2022-07-22T03:24:33;17.70;;;16.17;;
14396;SDS011;50653;0.000;0.000;2022-07-22T03:26:59;16.63;;;15.10;;
14396;SDS011;50653;0.000;0.000;2022-07-22T03:29:28;17.00;;;15.70;;
14396;SDS011;50653;0.000;0.000;2022-07-22T03:31:54;18.07;;;16.50;;
14396;SDS011;50653;0.000;0.000;2022-07-22T03:34:33;16.87;;;15.57;;
14396;SDS011;50653;0.000;0.000;2022-07-22T03:37:04;16.03;;;14.50;;
14396;SDS011;50653;0.000;0.000;2022-07-22T03:39:30;16.70;;;15.40;;
14396;SDS011;50653;0.000;0.000;2022-07-22T03:41:56;16.33;;;14.80;;
14396;SDS011;50653;0.000;0.000;2022-07-22T03:44:22;16.43;;;15.23;;
14396;SDS011;50653;0.000;0.000;2022-07-22T03:46:48;17.83;;;16.50;;
14396;SDS011;50653;0.000;0.000;2022-07-22T03:49:14;16.30;;;14.90;;
14396;SDS011;50653;0.000;0.000;2022-07-22T03:51:40;17.33;;;15.70;;
14396;SDS011;50653;0.000;0.000;2022-07-22T03:54:06;17.83;;;16.43;;
14396;SDS011;50653;0.000;0.000;2022-07-22T03:56:35;16.20;;;15.00;;
14396;SDS011;50653;0.000;0.000;2022-07-22T03:59:02;16.27;;;14.77;;
14396;SDS011;50653;0.000;0.000;2022-07-22T04:01:29;15.87;;;14.37;;
14396;SDS011;50653;0.000;0.000;2022-07-22T04:03:55;15.57;;;14.47;;
14396;SDS011;50653;0.000;0.000;2022-07-22T04:06:27;17.13;;;15.47;;
14396;SDS011;50653;0.000;0.000;2022-07-22T04:08:59;16.27;;;14.97;;
14396;SDS011;50653;0.000;0.000;2022-07-22T04:11:26;16.60;;;15.10;;
14396;SDS011;50653;0.000;0.000;2022-07-22T04:13:52;14.87;;;13.70;;
14396;SDS011;50653;0.000;0.000;2022-07-22T04:16:18;15.90;;;14.53;;
14396;SDS011;50653;0.000;0.000;2022-07-22T04:18:53;15.47;;;14.10;;
14396;SDS011;50653;0.000;0.000;2022-07-22T04:21:33;15.03;;;13.93;;
14396;SDS011;50653;0.000;0.000;2022-07-22T04:24:04;14.97;;;13.47;;
14396;SDS011;50653;0.000;0.000;2022-07-22T04:26:30;15.60;;;14.30;;
14396;SDS011;50653;0.000;0.000;2022-07-22T04:28:57;14.87;;;13.77;;
14396;SDS011;50653;0.000;0.000;2022-07-22T04:31:24;14.03;;;13.03;;
14396;SDS011;50653;0.000;0.000;2022-07-22T04:33:56;13.77;;;12.67;;
14396;SDS011;50653;0.000;0.000;2022-07-22T04:36:22;14.77;;;13.73;;
14396;SDS011;50653;0.000;0.000;2022-07-22T04:38:50;14.90;;;13.70;;
14396;SDS011;50653;0.000;0.000;2022-07-22T04:41:16;16.67;;;15.17;;
14396;SDS011;50653;0.000;0.000;2022-07-22T04:43:42;15.17;;;13.77;;
14396;SDS011;50653;0.000;0.000;2022-07-22T04:46:08;17.70;;;15.83;;
14396;SDS011;50653;0.000;0.000;2022-07-22T04:48:38;17.13;;;15.33;;
14396;SDS011;50653;0.000;0.000;2022-07-22T04:51:04;17.43;;;15.93;;
14396;SDS011;50653;0.000;0.000;2022-07-22T04:53:31;16.13;;;14.90;;
14396;SDS011;50653;0.000;0.000;2022-07-22T04:55:58;15.37;;;14.00;;
14396;SDS011;50653;0.000;0.000;2022-07-22T04:58:24;16.70;;;15.30;;
14396;SDS011;50653;0.000;0.000;2022-07-22T05:00:50;16.67;;;14.90;;
14396;SDS011;50653;0.000;0.000;2022-07-22T05:03:16;14.50;;;13.50;;
14396;SDS011;50653;0.000;0.000;2022-07-22T05:05:42;16.13;;;14.83;;
14396;SDS011;50653;0.000;0.000;2022-07-22T05:08:08;15.67;;;14.20;;
14396;SDS011;50653;0.000;0.000;2022-07-22T05:10:36;17.43;;;15.70;;
14396;SDS011;50653;0.000;0.000;2022-07-22T05:13:02;17.33;;;15.50;;
14396;SDS011;50653;0.000;0.000;2022-07-22T05:15:28;15.13;;;13.70;;
14396;SDS011;50653;0.000;0.000;2022-07-22T05:17:54;17.07;;;15.60;;
14396;SDS011;50653;0.000;0.000;2022-07-22T05:20:25;15.30;;;14.20;;
14396;SDS011;50653;0.000;0.000;2022-07-22T05:22:51;15.73;;;14.57;;
14396;SDS011;50653;0.000;0.000;2022-07-22T05:25:23;16.23;;;14.87;;
14396;SDS011;50653;0.000;0.000;2022-07-22T05:27:52;14.37;;;13.00;;
14396;SDS011;50653;0.000;0.000;2022-07-22T05:30:40;14.93;;;13.83;;
14396;SDS011;50653;0.000;0.000;2022-07-22T05:33:06;15.10;;;13.83;;
14396;SDS011;50653;0.000;0.000;2022-07-22T05:35:50;17.50;;;16.00;;
14396;SDS011;50653;0.000;0.000;2022-07-22T05:38:17;14.03;;;12.93;;
14396;SDS011;50653;0.000;0.000;2022-07-22T05:40:43;14.37;;;13.33;;
14396;SDS011;50653;0.000;0.000;2022-07-22T05:43:09;14.77;;;13.57;;
14396;SDS011;50653;0.000;0.000;2022-07-22T05:45:35;15.23;;;14.03;;
14396;SDS011;50653;0.000;0.000;2022-07-22T05:48:01;13.80;;;12.80;;
14396;SDS011;50653;0.000;0.000;2022-07-22T05:50:29;14.70;;;13.50;;
14396;SDS011;50653;0.000;0.000;2022-07-22T05:52:55;15.23;;;14.03;;
14396;SDS011;50653;0.000;0.000;2022-07-22T05:55:21;14.17;;;13.03;;
14396;SDS011;50653;0.000;0.000;2022-07-22T05:57:47;14.27;;;13.10;;
14396;SDS011;50653;0.000;0.000;2022-07-22T06:00:12;12.87;;;11.87;;
14396;SDS011;50653;0.000;0.000;2022-07-22T06:02:43;15.27;;;13.87;;
14396;SDS011;50653;0.000;0.000;2022-07-22T06:05:13;13.43;;;12.57;;
14396;SDS011;50653;0.000;0.000;2022-07-22T06:07:39;13.70;;;12.60;;
14396;SDS011;50653;0.000;0.000;2022-07-22T06:10:08;13.30;;;12.33;;
14396;SDS011;50653;0.000;0.000;2022-07-22T06:12:33;14.70;;;12.23;;
14396;SDS011;50653;0.000;0.000;2022-07-22T06:14:59;13.47;;;12.50;;
14396;SDS011;50653;0.000;0.000;2022-07-22T06:17:25;13.60;;;12.57;;
14396;SDS011;50653;0.000;0.000;2022-07-22T06:19:51;12.57;;;11.50;;
14396;SDS011;50653;0.000;0.000;2022-07-22T06:22:17;14.67;;;13.20;;
14396;SDS011;50653;0.000;0.000;2022-07-22T06:24:43;13.37;;;12.47;;
14396;SDS011;50653;0.000;0.000;2022-07-22T06:27:10;14.03;;;12.93;;
14396;SDS011;50653;0.000;0.000;2022-07-22T06:29:36;14.60;;;13.57;;
14396;SDS011;50653;0.000;0.000;2022-07-22T06:32:01;13.00;;;11.90;;
14396;SDS011;50653;0.000;0.000;2022-07-22T06:34:27;14.23;;;13.03;;
14396;SDS011;50653;0.000;0.000;2022-07-22T06:37:01;15.90;;;14.70;;
14396;SDS011;50653;0.000;0.000;2022-07-22T06:39:27;15.30;;;14.10;;
14396;SDS011;50653;0.000;0.000;2022-07-22T06:42:07;13.97;;;12.60;;
14396;SDS011;50653;0.000;0.000;2022-07-22T06:44:51;12.87;;;12.00;;
14396;SDS011;50653;0.000;0.000;2022-07-22T06:47:36;13.00;;;11.70;;
14396;SDS011;50653;0.000;0.000;2022-07-22T06:50:03;13.57;;;12.43;;
14396;SDS011;50653;0.000;0.000;2022-07-22T06:52:30;12.33;;;11.60;;
14396;SDS011;50653;0.000;0.000;2022-07-22T06:54:58;11.60;;;10.87;;
14396;SDS011;50653;0.000;0.000;2022-07-22T06:57:28;15.40;;;11.40;;
14396;SDS011;50653;0.000;0.000;2022-07-22T06:59:54;13.40;;;12.40;;
14396;SDS011;50653;0.000;0.000;2022-07-22T07:02:21;13.10;;;12.20;;
14396;SDS011;50653;0.000;0.000;2022-07-22T07:04:46;13.47;;;12.57;;
14396;SDS011;50653;0.000;0.000;2022-07-22T07:07:12;13.20;;;12.30;;
14396;SDS011;50653;0.000;0.000;2022-07-22T07:09:48;13.53;;;11.80;;
14396;SDS011;50653;0.000;0.000;2022-07-22T07:12:21;12.47;;;11.57;;
14396;SDS011;50653;0.000;0.000;2022-07-22T07:15:06;12.87;;;12.07;;
14396;SDS011;50653;0.000;0.000;2022-07-22T07:17:32;12.47;;;11.57;;
14396;SDS011;50653;0.000;0.000;2022-07-22T07:19:59;13.27;;;12.07;;
14396;SDS011;50653;0.000;0.000;2022-07-22T07:22:24;12.30;;;11.40;;
14396;SDS011;50653;0.000;0.000;2022-07-22T07:24:50;13.33;;;12.40;;
14396;SDS011;50653;0.000;0.000;2022-07-22T07:27:17;13.17;;;12.20;;
14396;SDS011;50653;0.000;0.000;2022-07-22T07:29:44;9.93;;;9.40;;
14396;SDS011;50653;0.000;0.000;2022-07-22T07:32:11;12.50;;;11.70;;
14396;SDS011;50653;0.000;0.000;2022-07-22T07:34:37;12.77;;;11.73;;
14396;SDS011;50653;0.000;0.000;2022-07-22T07:37:03;11.83;;;11.13;;
14396;SDS011;50653;0.000;0.000;2022-07-22T07:39:29;13.13;;;12.20;;
14396;SDS011;50653;0.000;0.000;2022-07-22T07:41:56;11.83;;;11.00;;
14396;SDS011;50653;0.000;0.000;2022-07-22T07:44:23;12.43;;;11.63;;
14396;SDS011;50653;0.000;0.000;2022-07-22T07:46:49;11.17;;;10.47;;
14396;SDS011;50653;0.000;0.000;2022-07-22T07:49:14;12.77;;;11.73;;
14396;SDS011;50653;0.000;0.000;2022-07-22T07:51:40;12.67;;;11.70;;
14396;SDS011;50653;0.000;0.000;2022-07-22T07:54:06;12.93;;;12.03;;
14396;SDS011;50653;0.000;0.000;2022-07-22T07:56:32;11.47;;;10.70;;
14396;SDS011;50653;0.000;0.000;2022-07-22T07:58:58;12.57;;;11.70;;
14396;SDS011;50653;0.000;0.000;2022-07-22T08:01:24;11.60;;;10.80;;
14396;SDS011;50653;0.000;0.000;2022-07-22T08:03:49;12.37;;;11.07;;
14396;SDS011;50653;0.000;0.000;2022-07-22T08:06:15;12.80;;;11.90;;
14396;SDS011;50653;0.000;0.000;2022-07-22T08:08:41;14.43;;;13.33;;
14396;SDS011;50653;0.000;0.000;2022-07-22T08:11:33;11.70;;;10.93;;
14396;SDS011;50653;0.000;0.000;2022-07-22T08:14:17;12.80;;;11.87;;
14396;SDS011;50653;0.000;0.000;2022-07-22T08:17:04;11.63;;;10.93;;
14396;SDS011;50653;0.000;0.000;2022-07-22T08:19:30;11.53;;;10.83;;
14396;SDS011;50653;0.000;0.000;2022-07-22T08:21:56;11.40;;;10.63;;
14396;SDS011;50653;0.000;0.000;2022-07-22T08:24:27;11.30;;;10.50;;
14396;SDS011;50653;0.000;0.000;2022-07-22T08:26:54;17.93;;;12.60;;
14396;SDS011;50653;0.000;0.000;2022-07-22T08:29:20;11.77;;;11.07;;
14396;SDS011;50653;0.000;0.000;2022-07-22T08:31:46;12.00;;;11.30;;
14396;SDS011;50653;0.000;0.000;2022-07-22T08:34:14;10.93;;;10.33;;
14396;SDS011;50653;0.000;0.000;2022-07-22T08:36:39;14.43;;;13.33;;
14396;SDS011;50653;0.000;0.000;2022-07-22T08:39:06;12.13;;;11.00;;
14396;SDS011;50653;0.000;0.000;2022-07-22T08:41:35;10.80;;;10.10;;
14396;SDS011;50653;0.000;0.000;2022-07-22T08:44:03;11.47;;;10.87;;
14396;SDS011;50653;0.000;0.000;2022-07-22T08:46:30;13.90;;;12.73;;
14396;SDS011;50653;0.000;0.000;2022-07-22T08:49:21;14.53;;;12.30;;
14396;SDS011;50653;0.000;0.000;2022-07-22T08:52:10;13.50;;;12.60;;
14396;SDS011;50653;0.000;0.000;2022-07-22T08:54:39;12.70;;;11.80;;
14396;SDS011;50653;0.000;0.000;2022-07-22T08:57:05;13.57;;;12.57;;
14396;SDS011;50653;0.000;0.000;2022-07-22T08:59:32;14.27;;;13.07;;
14396;SDS011;50653;0.000;0.000;2022-07-22T09:02:04;14.73;;;13.43;;
14396;SDS011;50653;0.000;0.000;2022-07-22T09:07:33;14.27;;;13.27;;
14396;SDS011;50653;0.000;0.000;2022-07-22T09:10:05;13.10;;;12.20;;
14396;SDS011;50653;0.000;0.000;2022-07-22T09:12:52;15.53;;;14.37;;
14396;SDS011;50653;0.000;0.000;2022-07-22T09:15:49;14.67;;;13.47;;
14396;SDS011;50653;0.000;0.000;2022-07-22T09:18:48;15.17;;;13.97;;
14396;SDS011;50653;0.000;0.000;2022-07-22T09:21:37;14.37;;;13.37;;
14396;SDS011;50653;0.000;0.000;2022-07-22T09:24:26;15.10;;;13.93;;
14396;SDS011;50653;0.000;0.000;2022-07-22T09:26:55;15.07;;;13.97;;
14396;SDS011;50653;0.000;0.000;2022-07-22T09:29:27;15.63;;;14.20;;
14396;SDS011;50653;0.000;0.000;2022-07-22T09:32:13;14.27;;;13.27;;
14396;SDS011;50653;0.000;0.000;2022-07-22T09:34:51;15.27;;;13.73;;
14396;SDS011;50653;0.000;0.000;2022-07-22T09:37:29;13.43;;;12.50;;
14396;SDS011;50653;0.000;0.000;2022-07-22T09:40:03;14.17;;;13.17;;
14396;SDS011;50653;0.000;0.000;2022-07-22T09:42:48;14.47;;;13.10;;
14396;SDS011;50653;0.000;0.000;2022-07-22T09:45:15;14.93;;;13.83;;
14396;SDS011;50653;0.000;0.000;2022-07-22T09:47:43;14.27;;;13.30;;
14396;SDS011;50653;0.000;0.000;2022-07-22T09:50:31;15.00;;;13.90;;
14396;SDS011;50653;0.000;0.000;2022-07-22T09:53:13;14.30;;;13.30;;
14396;SDS011;50653;0.000;0.000;2022-07-22T09:55:45;15.03;;;13.63;;
14396;SDS011;50653;0.000;0.000;2022-07-22T09:58:12;13.83;;;12.93;;
14396;SDS011;50653;0.000;0.000;2022-07-22T10:00:39;14.37;;;13.37;;
14396;SDS011;50653;0.000;0.000;2022-07-22T10:03:07;13.60;;;12.70;;
14396;SDS011;50653;0.000;0.000;2022-07-22T10:05:37;15.07;;;14.07;;
14396;SDS011;50653;0.000;0.000;2022-07-22T10:08:05;15.77;;;14.40;;
14396;SDS011;50653;0.000;0.000;2022-07-22T10:10:34;14.63;;;13.33;;
14396;SDS011;50653;0.000;0.000;2022-07-22T10:13:02;15.07;;;14.07;;
14396;SDS011;50653;0.000;0.000;2022-07-22T10:15:30;15.87;;;14.60;;
14396;SDS011;50653;0.000;0.000;2022-07-22T10:17:58;15.87;;;14.57;;
14396;SDS011;50653;0.000;0.000;2022-07-22T10:20:27;16.97;;;15.53;;
14396;SDS011;50653;0.000;0.000;2022-07-22T10:22:55;14.90;;;13.90;;
14396;SDS011;50653;0.000;0.000;2022-07-22T10:25:22;15.77;;;14.70;;
14396;SDS011;50653;0.000;0.000;2022-07-22T10:27:57;15.17;;;14.07;;
14396;SDS011;50653;0.000;0.000;2022-07-22T10:30:37;14.30;;;13.20;;
14396;SDS011;50653;0.000;0.000;2022-07-22T10:33:16;15.50;;;14.30;;
14396;SDS011;50653;0.000;0.000;2022-07-22T10:35:57;16.27;;;14.20;;
14396;SDS011;50653;0.000;0.000;2022-07-22T10:38:26;17.10;;;15.63;;
14396;SDS011;50653;0.000;0.000;2022-07-22T10:41:02;15.67;;;14.30;;
14396;SDS011;50653;0.000;0.000;2022-07-22T10:43:45;15.07;;;13.87;;
14396;SDS011;50653;0.000;0.000;2022-07-22T10:46:13;15.37;;;13.47;;
14396;SDS011;50653;0.000;0.000;2022-07-22T10:56:32;16.47;;;15.17;;
14396;SDS011;50653;0.000;0.000;2022-07-22T10:59:15;14.00;;;13.00;;
14396;SDS011;50653;0.000;0.000;2022-07-22T11:01:49;15.43;;;13.93;;
14396;SDS011;50653;0.000;0.000;2022-07-22T11:04:18;16.77;;;15.23;;
14396;SDS011;50653;0.000;0.000;2022-07-22T11:06:47;15.03;;;13.90;;
14396;SDS011;50653;0.000;0.000;2022-07-22T11:09:18;14.20;;;13.20;;
14396;SDS011;50653;0.000;0.000;2022-07-22T11:11:55;13.90;;;12.90;;
14396;SDS011;50653;0.000;0.000;2022-07-22T11:16:50;13.40;;;12.40;;
14396;SDS011;50653;0.000;0.000;2022-07-22T11:19:24;15.37;;;14.27;;
14396;SDS011;50653;0.000;0.000;2022-07-22T11:21:52;15.90;;;14.53;;
14396;SDS011;50653;0.000;0.000;2022-07-22T11:24:20;14.37;;;13.27;;
14396;SDS011;50653;0.000;0.000;2022-07-22T11:26:50;14.77;;;13.57;;
14396;SDS011;50653;0.000;0.000;2022-07-22T11:29:30;15.33;;;14.10;;
14396;SDS011;50653;0.000;0.000;2022-07-22T11:32:01;15.43;;;13.03;;
14396;SDS011;50653;0.000;0.000;2022-07-22T11:34:28;16.27;;;14.57;;
14396;SDS011;50653;0.000;0.000;2022-07-22T11:36:54;16.00;;;14.47;;
14396;SDS011;50653;0.000;0.000;2022-07-22T11:39:21;14.43;;;13.23;;
14396;SDS011;50653;0.000;0.000;2022-07-22T11:41:50;13.70;;;12.70;;
14396;SDS011;50653;0.000;0.000;2022-07-22T11:44:17;15.80;;;14.40;;
14396;SDS011;50653;0.000;0.000;2022-07-22T11:46:45;15.43;;;14.33;;
14396;SDS011;50653;0.000;0.000;2022-07-22T11:49:13;15.67;;;14.17;;
14396;SDS011;50653;0.000;0.000;2022-07-22T11:51:40;16.60;;;15.00;;
14396;SDS011;50653;0.000;0.000;2022-07-22T11:54:05;14.57;;;13.57;;
14396;SDS011;50653;0.000;0.000;2022-07-22T11:56:32;16.50;;;15.30;;
14396;SDS011;50653;0.000;0.000;2022-07-22T11:58:58;16.37;;;14.90;;
14396;SDS011;50653;0.000;0.000;2022-07-22T12:01:27;16.40;;;15.07;;
14396;SDS011;50653;0.000;0.000;2022-07-22T12:03:56;15.43;;;14.10;;
14396;SDS011;50653;0.000;0.000;2022-07-22T12:06:24;14.87;;;13.50;;
14396;SDS011;50653;0.000;0.000;2022-07-22T12:08:56;15.20;;;14.00;;
14396;SDS011;50653;0.000;0.000;2022-07-22T12:11:27;16.73;;;15.43;;
14396;SDS011;50653;0.000;0.000;2022-07-22T12:13:53;16.70;;;15.30;;
14396;SDS011;50653;0.000;0.000;2022-07-22T12:16:23;13.97;;;13.07;;
14396;SDS011;50653;0.000;0.000;2022-07-22T12:18:55;15.83;;;14.60;;
14396;SDS011;50653;0.000;0.000;2022-07-22T12:21:55;15.87;;;14.17;;
14396;SDS011;50653;0.000;0.000;2022-07-22T12:24:37;14.93;;;13.93;;
14396;SDS011;50653;0.000;0.000;2022-07-22T12:27:05;14.43;;;13.43;;
14396;SDS011;50653;0.000;0.000;2022-07-22T12:32:02;16.00;;;14.77;;
14396;SDS011;50653;0.000;0.000;2022-07-22T12:34:44;15.90;;;14.40;;
14396;SDS011;50653;0.000;0.000;2022-07-22T12:42:29;13.70;;;12.70;;
14396;SDS011;50653;0.000;0.000;2022-07-22T12:44:59;14.70;;;13.60;;
14396;SDS011;50653;0.000;0.000;2022-07-22T12:50:17;14.13;;;13.03;;
14396;SDS011;50653;0.000;0.000;2022-07-22T12:52:44;12.93;;;12.23;;
14396;SDS011;50653;0.000;0.000;2022-07-22T12:55:10;13.63;;;12.73;;
14396;SDS011;50653;0.000;0.000;2022-07-22T12:57:35;13.60;;;12.67;;
14396;SDS011;50653;0.000;0.000;2022-07-22T13:00:01;13.77;;;12.83;;
14396;SDS011;50653;0.000;0.000;2022-07-22T13:02:27;14.77;;;13.57;;
14396;SDS011;50653;0.000;0.000;2022-07-22T13:04:53;12.77;;;12.00;;
14396;SDS011;50653;0.000;0.000;2022-07-22T13:07:19;13.63;;;12.83;;
14396;SDS011;50653;0.000;0.000;2022-07-22T13:09:44;14.23;;;13.10;;
14396;SDS011;50653;0.000;0.000;2022-07-22T13:12:10;14.27;;;13.27;;
14396;SDS011;50653;0.000;0.000;2022-07-22T13:14:35;14.90;;;13.50;;
14396;SDS011;50653;0.000;0.000;2022-07-22T13:17:01;14.23;;;13.17;;
14396;SDS011;50653;0.000;0.000;2022-07-22T13:19:28;14.17;;;13.23;;
14396;SDS011;50653;0.000;0.000;2022-07-22T13:21:54;14.07;;;13.13;;
14396;SDS011;50653;0.000;0.000;2022-07-22T13:24:20;13.23;;;12.20;;
14396;SDS011;50653;0.000;0.000;2022-07-22T13:26:45;14.40;;;13.40;;
14396;SDS011;50653;0.000;0.000;2022-07-22T13:29:11;13.77;;;12.87;;
14396;SDS011;50653;0.000;0.000;2022-07-22T13:31:37;15.03;;;13.87;;
14396;SDS011;50653;0.000;0.000;2022-07-22T13:34:03;14.10;;;13.10;;
14396;SDS011;50653;0.000;0.000;2022-07-22T13:36:28;14.60;;;13.60;;
14396;SDS011;50653;0.000;0.000;2022-07-22T13:38:57;22.37;;;16.50;;
14396;SDS011;50653;0.000;0.000;2022-07-22T13:41:23;17.43;;;15.20;;
14396;SDS011;50653;0.000;0.000;2022-07-22T13:43:49;16.23;;;15.10;;
14396;SDS011;50653;0.000;0.000;2022-07-22T13:46:16;13.80;;;12.80;;
14396;SDS011;50653;0.000;0.000;2022-07-22T13:48:42;15.87;;;14.87;;
14396;SDS011;50653;0.000;0.000;2022-07-22T13:51:08;15.50;;;14.23;;
14396;SDS011;50653;0.000;0.000;2022-07-22T13:53:34;14.23;;;13.10;;
14396;SDS011;50653;0.000;0.000;2022-07-22T13:56:00;19.80;;;15.27;;
14396;SDS011;50653;0.000;0.000;2022-07-22T13:58:26;14.93;;;14.00;;
14396;SDS011;50653;0.000;0.000;2022-07-22T14:00:52;15.43;;;14.23;;
14396;SDS011;50653;0.000;0.000;2022-07-22T14:03:17;14.33;;;13.33;;
14396;SDS011;50653;0.000;0.000;2022-07-22T14:05:43;14.80;;;13.80;;
14396;SDS011;50653;0.000;0.000;2022-07-22T14:08:10;14.90;;;13.70;;
14396;SDS011;50653;0.000;0.000;2022-07-22T14:10:35;15.67;;;14.57;;
14396;SDS011;50653;0.000;0.000;2022-07-22T14:13:01;15.80;;;14.80;;
14396;SDS011;50653;0.000;0.000;2022-07-22T14:15:27;15.50;;;14.50;;
14396;SDS011;50653;0.000;0.000;2022-07-22T14:17:52;15.37;;;14.20;;
14396;SDS011;50653;0.000;0.000;2022-07-22T14:20:18;14.80;;;13.80;;
14396;SDS011;50653;0.000;0.000;2022-07-22T14:22:44;15.87;;;14.40;;
14396;SDS011;50653;0.000;0.000;2022-07-22T14:25:09;16.50;;;15.30;;
14396;SDS011;50653;0.000;0.000;2022-07-22T14:27:35;16.93;;;15.53;;
14396;SDS011;50653;0.000;0.000;2022-07-22T14:30:00;15.50;;;14.50;;
14396;SDS011;50653;0.000;0.000;2022-07-22T14:32:26;17.33;;;16.13;;
14396;SDS011;50653;0.000;0.000;2022-07-22T14:34:52;17.47;;;16.10;;
14396;SDS011;50653;0.000;0.000;2022-07-22T14:37:17;15.70;;;14.50;;
14396;SDS011;50653;0.000;0.000;2022-07-22T14:39:43;15.30;;;14.33;;
14396;SDS011;50653;0.000;0.000;2022-07-22T14:42:09;14.40;;;13.50;;
14396;SDS011;50653;0.000;0.000;2022-07-22T14:44:35;17.30;;;16.10;;
14396;SDS011;50653;0.000;0.000;2022-07-22T14:47:00;16.00;;;14.90;;
14396;SDS011;50653;0.000;0.000;2022-07-22T14:49:27;16.30;;;15.00;;
14396;SDS011;50653;0.000;0.000;2022-07-22T14:51:52;16.70;;;15.30;;
14396;SDS011;50653;0.000;0.000;2022-07-22T14:54:18;16.50;;;15.33;;
14396;SDS011;50653;0.000;0.000;2022-07-22T14:56:44;17.83;;;16.53;;
14396;SDS011;50653;0.000;0.000;2022-07-22T14:59:10;17.60;;;16.27;;
14396;SDS011;50653;0.000;0.000;2022-07-22T15:01:35;16.97;;;15.77;;
14396;SDS011;50653;0.000;0.000;2022-07-22T15:04:01;16.77;;;15.60;;
14396;SDS011;50653;0.000;0.000;2022-07-22T15:06:27;16.60;;;15.40;;
14396;SDS011;50653;0.000;0.000;2022-07-22T15:08:52;17.00;;;15.80;;